Time;durP1;ratioP1;P1;durP2;ratioP2;P2;SDS_P1;SDS_P2;PMS_P1;PMS_P2;Temp;Humidity;BMP_temperature;BMP_pressure;BME280_temperature;BME280_humidity;BME280_pressure;Samples;Min_cycle;Max_cycle;Signal;HPM_P1;HPM_P2
2023/10/25 00:02:23;;;;;;;11.25;5.22;;;10.40;99.90;;;;;;6245182;22;20000;-77
2023/10/25 00:04:56;;;;;;;8.25;4.75;;;10.40;99.90;;;;;;6245166;22;20070;-78
2023/10/25 00:07:22;;;;;;;8.07;5.10;;;10.40;99.90;;;;;;6245703;22;20463;-77
2023/10/25 00:09:48;;;;;;;9.52;3.90;;;10.30;99.90;;;;;;6245211;22;20003;-78
2023/10/25 00:12:13;;;;;;;7.32;5.10;;;10.30;99.90;;;;;;6244743;22;20400;-77
2023/10/25 00:14:39;;;;;;;9.82;4.88;;;10.30;99.90;;;;;;6271207;22;20076;-77
2023/10/25 00:17:05;;;;;;;10.20;5.35;;;10.30;99.90;;;;;;6272119;22;19999;-77
2023/10/25 00:19:30;;;;;;;7.97;4.93;;;10.20;99.90;;;;;;6272102;22;20011;-77
2023/10/25 00:21:56;;;;;;;9.00;5.60;;;10.20;99.90;;;;;;6244308;22;20417;-77
2023/10/25 00:24:21;;;;;;;7.85;4.20;;;10.20;99.90;;;;;;6271580;22;20419;-77
2023/10/25 00:26:47;;;;;;;7.13;5.20;;;10.20;99.90;;;;;;6244539;22;20425;-78
2023/10/25 00:29:12;;;;;;;9.52;4.82;;;10.20;99.90;;;;;;6271137;22;20057;-78
2023/10/25 00:31:38;;;;;;;6.28;4.90;;;10.20;99.90;;;;;;6244683;22;20086;-77
2023/10/25 00:34:03;;;;;;;5.60;4.22;;;10.20;99.90;;;;;;6270786;22;20003;-77
2023/10/25 00:36:29;;;;;;;9.70;4.72;;;10.20;99.90;;;;;;6271986;22;20070;-77
2023/10/25 00:38:55;;;;;;;11.32;4.70;;;10.10;99.90;;;;;;6271097;22;20015;-78
2023/10/25 00:41:21;;;;;;;6.38;4.60;;;10.10;99.90;;;;;;6270842;22;20484;-77
2023/10/25 00:43:46;;;;;;;8.43;4.75;;;10.10;99.90;;;;;;6271447;22;19999;-78
2023/10/25 00:46:15;;;;;;;7.18;4.20;;;10.10;99.90;;;;;;6271493;22;20042;-78
2023/10/25 00:48:45;;;;;;;8.93;4.85;;;10.10;99.90;;;;;;6272198;22;20808;-78
2023/10/25 00:51:12;;;;;;;7.85;4.45;;;10.10;99.90;;;;;;6272124;22;20200;-77
2023/10/25 00:53:41;;;;;;;9.13;4.45;;;10.00;99.90;;;;;;6271706;22;20060;-77
2023/10/25 00:56:11;;;;;;;8.77;4.30;;;10.00;99.90;;;;;;6243110;22;20074;-78
2023/10/25 00:58:41;;;;;;;6.03;3.85;;;10.00;99.90;;;;;;6244959;22;20000;-78
2023/10/25 01:01:08;;;;;;;5.82;4.05;;;10.00;99.90;;;;;;6243852;22;20057;-77
2023/10/25 01:03:33;;;;;;;7.13;4.10;;;10.00;99.90;;;;;;6244784;22;20514;-78
2023/10/25 01:06:02;;;;;;;7.00;4.55;;;10.00;99.90;;;;;;6271093;22;20008;-77
2023/10/25 01:08:28;;;;;;;7.18;3.83;;;10.00;99.90;;;;;;6271769;22;20006;-78
2023/10/25 01:10:53;;;;;;;7.20;4.53;;;9.90;99.90;;;;;;6270623;22;20382;-78
2023/10/25 01:13:20;;;;;;;10.18;5.07;;;9.90;99.90;;;;;;6271311;22;20130;-78
2023/10/25 01:15:47;;;;;;;8.13;4.18;;;9.90;99.90;;;;;;6271017;22;20010;-77
2023/10/25 01:18:15;;;;;;;6.47;4.13;;;9.90;99.90;;;;;;6271293;22;20014;-78
2023/10/25 01:20:42;;;;;;;7.32;3.72;;;9.90;99.90;;;;;;6271705;22;19996;-77
2023/10/25 01:23:08;;;;;;;6.50;4.13;;;9.90;99.90;;;;;;6270712;22;20057;-77
2023/10/25 01:25:34;;;;;;;4.72;3.67;;;9.90;99.90;;;;;;6271099;22;20007;-77
2023/10/25 01:28:00;;;;;;;8.23;4.05;;;9.90;99.90;;;;;;6270890;22;20003;-77
2023/10/25 01:30:26;;;;;;;7.80;3.95;;;9.90;99.90;;;;;;6244187;22;20111;-78
2023/10/25 01:32:53;;;;;;;6.65;4.07;;;9.90;99.90;;;;;;6270553;22;20298;-78
2023/10/25 01:35:19;;;;;;;9.18;5.13;;;9.90;99.90;;;;;;6271209;22;20003;-77
2023/10/25 01:37:45;;;;;;;7.75;3.75;;;9.80;99.90;;;;;;6270806;22;20007;-78
2023/10/25 01:40:11;;;;;;;7.45;4.20;;;9.80;99.90;;;;;;6270773;22;20023;-78
2023/10/25 01:42:36;;;;;;;6.82;3.55;;;9.80;99.90;;;;;;6271618;22;20003;-78
2023/10/25 01:45:02;;;;;;;7.60;3.42;;;9.80;99.90;;;;;;6271774;22;20011;-78
2023/10/25 01:47:28;;;;;;;6.95;4.22;;;9.80;99.90;;;;;;6273540;22;20071;-78
2023/10/25 01:49:54;;;;;;;10.48;4.20;;;9.80;99.90;;;;;;6272682;22;20003;-77
2023/10/25 01:52:20;;;;;;;6.63;3.90;;;9.80;99.90;;;;;;6246023;22;19996;-77
2023/10/25 01:54:46;;;;;;;9.98;4.93;;;9.80;99.90;;;;;;6272518;22;20007;-77
2023/10/25 01:57:12;;;;;;;7.22;3.97;;;9.80;99.90;;;;;;6273132;22;20053;-77
2023/10/25 01:59:38;;;;;;;7.82;4.20;;;9.70;99.90;;;;;;6273641;22;19996;-77
2023/10/25 02:02:04;;;;;;;8.13;3.88;;;9.80;99.90;;;;;;6272394;22;20035;-78
2023/10/25 02:04:29;;;;;;;15.38;4.32;;;9.70;99.90;;;;;;6273596;22;20034;-77
2023/10/25 02:06:55;;;;;;;6.95;4.05;;;9.70;99.90;;;;;;6272616;22;20000;-77
2023/10/25 02:09:21;;;;;;;7.30;3.90;;;9.60;99.90;;;;;;6272723;22;20004;-77
2023/10/25 02:11:47;;;;;;;8.40;3.67;;;9.60;99.90;;;;;;6245600;22;20023;-77
2023/10/25 02:14:13;;;;;;;8.27;3.75;;;9.60;99.90;;;;;;6273130;22;20070;-77
2023/10/25 02:16:39;;;;;;;7.38;3.83;;;9.60;99.90;;;;;;6272992;22;20049;-77
2023/10/25 02:19:04;;;;;;;7.00;3.00;;;9.50;99.90;;;;;;6272420;22;20000;-77
2023/10/25 02:21:35;;;;;;;5.03;2.92;;;9.50;99.90;;;;;;6273224;22;20002;-77
2023/10/25 02:24:02;;;;;;;6.57;4.35;;;9.50;99.90;;;;;;6271990;22;20054;-77
2023/10/25 02:26:28;;;;;;;9.02;4.13;;;9.50;99.90;;;;;;6272885;22;20026;-78
2023/10/25 02:28:54;;;;;;;6.15;4.95;;;9.40;99.90;;;;;;6245829;22;20417;-77
2023/10/25 02:31:20;;;;;;;7.93;4.85;;;9.40;99.90;;;;;;6273186;22;20565;-77
2023/10/25 02:33:45;;;;;;;12.13;4.45;;;9.30;99.90;;;;;;6273316;22;20018;-78
2023/10/25 02:36:11;;;;;;;7.20;4.30;;;9.30;99.90;;;;;;6272549;22;20075;-77
2023/10/25 02:38:36;;;;;;;11.23;4.75;;;9.30;99.90;;;;;;6271943;22;20020;-77
2023/10/25 02:41:02;;;;;;;10.43;4.67;;;9.30;99.90;;;;;;6245044;22;20109;-78
2023/10/25 02:43:28;;;;;;;7.93;4.05;;;9.30;99.90;;;;;;6273187;22;20000;-77
2023/10/25 02:45:59;;;;;;;8.05;4.32;;;9.30;99.90;;;;;;6272687;22;20083;-77
2023/10/25 02:48:25;;;;;;;5.80;3.88;;;9.30;99.90;;;;;;6272480;22;20007;-77
2023/10/25 02:50:50;;;;;;;6.45;3.78;;;9.20;99.90;;;;;;6272628;22;20272;-77
2023/10/25 02:53:16;;;;;;;8.07;4.38;;;9.20;99.90;;;;;;6272089;22;20421;-77
2023/10/25 02:55:41;;;;;;;10.80;4.55;;;9.20;99.90;;;;;;6272346;22;20008;-77
2023/10/25 02:58:07;;;;;;;9.60;4.60;;;9.20;99.90;;;;;;6272403;22;20004;-77
2023/10/25 03:00:32;;;;;;;7.83;3.70;;;9.20;99.90;;;;;;6245633;22;20033;-77
2023/10/25 03:02:58;;;;;;;4.90;3.85;;;9.10;99.90;;;;;;6272584;22;20007;-77
2023/10/25 03:05:24;;;;;;;7.45;4.55;;;9.10;99.90;;;;;;6272513;22;20003;-78
2023/10/25 03:07:49;;;;;;;12.30;4.87;;;9.10;99.90;;;;;;6272291;22;20011;-80
2023/10/25 03:10:15;;;;;;;9.93;4.57;;;9.00;99.90;;;;;;6272719;22;20024;-78
2023/10/25 03:12:41;;;;;;;9.45;4.10;;;9.00;99.90;;;;;;6246090;22;20035;-78
2023/10/25 03:15:07;;;;;;;8.13;4.20;;;9.00;99.90;;;;;;6246125;22;20402;-78
2023/10/25 03:17:32;;;;;;;7.47;4.60;;;9.00;99.90;;;;;;6273316;22;20011;-78
2023/10/25 03:20:00;;;;;;;11.83;4.90;;;9.00;99.90;;;;;;6273125;22;20100;-78
2023/10/25 03:22:25;;;;;;;12.20;5.10;;;8.90;99.90;;;;;;6272370;22;20362;-78
2023/10/25 03:24:51;;;;;;;7.13;4.73;;;9.00;99.90;;;;;;6272296;22;20003;-77
2023/10/25 03:27:16;;;;;;;9.63;4.40;;;9.00;99.90;;;;;;6271988;22;19999;-78
2023/10/25 03:29:42;;;;;;;6.05;4.72;;;8.90;99.90;;;;;;6272045;22;20057;-78
2023/10/25 03:32:07;;;;;;;10.02;5.20;;;8.90;99.90;;;;;;6271401;22;20065;-78
2023/10/25 03:34:33;;;;;;;3.60;3.20;;;8.90;99.90;;;;;;6244333;22;20460;-78
2023/10/25 03:36:59;;;;;;;10.25;4.72;;;8.80;99.90;;;;;;6270773;22;20487;-77
2023/10/25 03:39:24;;;;;;;9.85;4.90;;;8.80;99.90;;;;;;6242055;22;20024;-78
2023/10/25 03:41:50;;;;;;;10.37;4.83;;;8.80;99.90;;;;;;6272003;22;20004;-78
2023/10/25 03:44:15;;;;;;;11.80;5.32;;;8.80;99.90;;;;;;6272430;22;19992;-78
2023/10/25 03:46:41;;;;;;;9.63;6.05;;;8.70;99.90;;;;;;6272147;22;20086;-78
2023/10/25 03:49:07;;;;;;;9.60;5.20;;;8.70;99.90;;;;;;6272092;22;20049;-78
2023/10/25 03:51:32;;;;;;;9.15;7.22;;;8.70;99.90;;;;;;6271154;22;20022;-79
2023/10/25 03:53:58;;;;;;;17.63;6.37;;;8.70;99.90;;;;;;6272036;22;20007;-78
2023/10/25 03:56:23;;;;;;;8.77;6.63;;;8.70;99.90;;;;;;6271823;22;20410;-78
2023/10/25 03:58:49;;;;;;;10.80;6.30;;;8.70;99.90;;;;;;6272097;22;20008;-78
2023/10/25 04:01:15;;;;;;;10.27;5.32;;;8.70;99.90;;;;;;6245286;22;20030;-79
2023/10/25 04:03:41;;;;;;;10.82;6.43;;;8.70;99.90;;;;;;6271953;22;20004;-77
2023/10/25 04:06:07;;;;;;;12.97;7.40;;;8.70;99.90;;;;;;6271501;22;20003;-78
2023/10/25 04:08:33;;;;;;;12.37;6.27;;;8.70;99.90;;;;;;6270850;22;20045;-78
2023/10/25 04:10:59;;;;;;;10.00;6.67;;;8.70;99.90;;;;;;6271718;22;20086;-78
2023/10/25 04:13:25;;;;;;;10.27;6.70;;;8.70;99.90;;;;;;6271472;22;20006;-77
2023/10/25 04:15:57;;;;;;;8.10;5.43;;;8.70;99.90;;;;;;6271971;22;20049;-78
2023/10/25 04:18:24;;;;;;;12.23;6.97;;;8.70;99.90;;;;;;6270558;22;20007;-78
2023/10/25 04:20:50;;;;;;;13.47;7.30;;;8.70;99.90;;;;;;6269395;22;20448;-77
2023/10/25 04:23:16;;;;;;;11.97;7.23;;;8.70;99.90;;;;;;6270465;22;20000;-78
2023/10/25 04:25:41;;;;;;;11.70;7.00;;;8.60;99.90;;;;;;6244318;22;20379;-78
2023/10/25 04:28:07;;;;;;;9.10;7.43;;;8.70;99.90;;;;;;6244348;22;20011;-78
2023/10/25 04:30:33;;;;;;;15.73;8.07;;;8.70;99.90;;;;;;6271014;22;20004;-78
2023/10/25 04:32:59;;;;;;;13.40;7.93;;;8.60;99.90;;;;;;6271553;22;20007;-78
2023/10/25 04:35:24;;;;;;;12.32;8.15;;;8.60;99.90;;;;;;6270478;22;20433;-78
2023/10/25 04:37:50;;;;;;;11.50;8.40;;;8.70;99.90;;;;;;6271393;22;20401;-78
2023/10/25 04:40:15;;;;;;;13.33;7.77;;;8.60;99.90;;;;;;6270626;22;20000;-78
2023/10/25 04:42:41;;;;;;;18.90;9.50;;;8.60;99.90;;;;;;6271291;22;20066;-78
2023/10/25 04:45:07;;;;;;;14.10;8.50;;;8.60;99.90;;;;;;6271070;22;20282;-78
2023/10/25 04:47:33;;;;;;;17.27;9.05;;;8.80;99.90;;;;;;6270884;22;20007;-79
2023/10/25 04:50:01;;;;;;;10.43;9.30;;;8.70;99.90;;;;;;6243551;22;20010;-79
2023/10/25 04:52:27;;;;;;;13.93;8.90;;;8.70;99.90;;;;;;6271280;22;20026;-78
2023/10/25 04:54:54;;;;;;;8.93;7.63;;;8.70;99.90;;;;;;6271045;22;20424;-78
2023/10/25 04:57:19;;;;;;;14.95;9.35;;;8.80;99.90;;;;;;6243657;22;20000;-78
2023/10/25 04:59:45;;;;;;;16.92;9.85;;;8.80;99.90;;;;;;6244327;22;20083;-78
2023/10/25 05:02:10;;;;;;;10.17;9.03;;;8.90;99.90;;;;;;6271437;22;20030;-77
2023/10/25 05:04:36;;;;;;;16.60;9.53;;;8.90;99.90;;;;;;6270427;22;20048;-78
2023/10/25 05:07:02;;;;;;;17.43;11.17;;;9.00;99.90;;;;;;6244531;22;20428;-78
2023/10/25 05:09:27;;;;;;;13.70;10.47;;;9.00;99.90;;;;;;6271152;22;20095;-78
2023/10/25 05:12:03;;;;;;;14.40;10.35;;;9.00;99.90;;;;;;6244490;22;20010;-78
2023/10/25 05:14:29;;;;;;;13.60;8.73;;;9.00;99.90;;;;;;6270899;22;20031;-78
2023/10/25 05:16:55;;;;;;;13.23;8.50;;;9.00;99.90;;;;;;6270932;22;20003;-78
2023/10/25 05:19:21;;;;;;;16.60;9.03;;;9.10;99.90;;;;;;6245135;22;20004;-78
2023/10/25 05:21:50;;;;;;;14.20;9.43;;;9.10;99.90;;;;;;6247784;22;20004;-78
2023/10/25 05:24:17;;;;;;;12.40;8.37;;;9.10;99.90;;;;;;6274526;22;20023;-77
2023/10/25 05:26:44;;;;;;;17.73;8.93;;;9.20;99.90;;;;;;6247998;22;20000;-78
2023/10/25 05:29:10;;;;;;;12.33;8.83;;;9.10;99.90;;;;;;6275072;22;20066;-77
2023/10/25 05:31:43;;;;;;;16.30;9.60;;;9.10;99.90;;;;;;6273679;22;20050;-77
2023/10/25 05:34:10;;;;;;;10.23;8.80;;;9.20;99.90;;;;;;6274551;22;20008;-78
2023/10/25 05:36:36;;;;;;;11.65;7.63;;;9.20;99.90;;;;;;6274350;22;20364;-77
2023/10/25 05:39:03;;;;;;;10.50;8.43;;;9.20;99.90;;;;;;6274329;22;20437;-78
2023/10/25 05:41:36;;;;;;;13.70;10.63;;;9.30;99.90;;;;;;6274206;22;20003;-77
2023/10/25 05:44:14;;;;;;;12.57;7.28;;;9.30;99.90;;;;;;6274425;22;20000;-77
2023/10/25 05:46:40;;;;;;;8.20;6.27;;;9.30;99.90;;;;;;6273948;22;20370;-77
2023/10/25 05:49:06;;;;;;;15.37;7.83;;;9.30;99.90;;;;;;6246169;22;19999;-76
2023/10/25 05:51:32;;;;;;;14.50;7.68;;;9.40;99.90;;;;;;6271103;22;20512;-73
2023/10/25 05:53:59;;;;;;;17.02;7.57;;;9.40;99.90;;;;;;6245787;22;20065;-72
2023/10/25 05:56:28;;;;;;;16.47;8.90;;;9.40;99.90;;;;;;6272791;22;20590;-73
2023/10/25 05:58:55;;;;;;;14.27;8.13;;;9.40;99.90;;;;;;6274593;22;20325;-72
2023/10/25 06:01:34;;;;;;;13.20;7.07;;;9.50;99.90;;;;;;6246448;22;20031;-73
2023/10/25 06:04:03;;;;;;;9.73;7.10;;;9.50;99.90;;;;;;6274973;22;20018;-74
2023/10/25 06:06:31;;;;;;;16.88;8.25;;;9.50;99.90;;;;;;6274219;22;20008;-73
2023/10/25 06:08:56;;;;;;;11.60;6.72;;;9.60;99.90;;;;;;6275069;22;20085;-73
2023/10/25 06:11:22;;;;;;;9.85;7.28;;;9.60;99.90;;;;;;6274086;22;20433;-73
2023/10/25 06:13:48;;;;;;;9.15;6.95;;;9.60;99.90;;;;;;6274704;22;20333;-72
2023/10/25 06:16:14;;;;;;;13.57;6.68;;;9.70;99.90;;;;;;6274167;22;20426;-72
2023/10/25 06:18:39;;;;;;;10.68;6.45;;;9.70;99.90;;;;;;6274428;22;20007;-73
2023/10/25 06:21:05;;;;;;;7.88;5.90;;;9.70;99.90;;;;;;6274389;22;20004;-72
2023/10/25 06:23:33;;;;;;;11.25;6.40;;;9.70;99.90;;;;;;6274253;22;20071;-72
2023/10/25 06:25:58;;;;;;;11.57;6.07;;;9.70;99.90;;;;;;6274383;22;20078;-72
2023/10/25 06:28:24;;;;;;;10.90;5.70;;;9.80;99.90;;;;;;6246865;22;20081;-72
2023/10/25 06:30:49;;;;;;;10.88;7.82;;;9.80;99.90;;;;;;6272778;22;20007;-73
2023/10/25 06:33:15;;;;;;;12.98;7.40;;;9.80;99.90;;;;;;6273070;22;20000;-73
2023/10/25 06:35:41;;;;;;;11.98;6.88;;;9.80;99.90;;;;;;6245643;22;20003;-72
2023/10/25 06:38:07;;;;;;;8.30;5.70;;;9.80;99.90;;;;;;6272650;22;20433;-72
2023/10/25 06:40:33;;;;;;;12.98;6.57;;;9.90;99.90;;;;;;6272226;22;20004;-72
2023/10/25 06:42:59;;;;;;;11.48;6.72;;;9.90;99.90;;;;;;6272882;22;20422;-72
2023/10/25 06:45:25;;;;;;;11.32;6.95;;;9.90;99.90;;;;;;6272058;22;19999;-73
2023/10/25 06:47:51;;;;;;;10.10;6.38;;;9.90;99.90;;;;;;6272724;22;20421;-72
2023/10/25 06:50:17;;;;;;;11.13;6.90;;;9.90;99.90;;;;;;6272472;22;20007;-72
2023/10/25 06:52:43;;;;;;;12.13;6.60;;;9.90;99.90;;;;;;6272743;22;20057;-73
2023/10/25 06:55:09;;;;;;;10.13;6.90;;;9.90;99.90;;;;;;6272313;22;20303;-73
2023/10/25 06:57:35;;;;;;;7.75;6.35;;;9.90;99.90;;;;;;6272062;22;19995;-72
2023/10/25 07:00:03;;;;;;;7.65;6.60;;;10.00;99.90;;;;;;6271845;22;20063;-72
2023/10/25 07:02:48;;;;;;;13.10;7.30;;;10.00;99.90;;;;;;6270233;22;19992;-73
2023/10/25 07:05:15;;;;;;;14.40;7.50;;;10.00;99.90;;;;;;6270520;22;20031;-72
2023/10/25 07:07:43;;;;;;;11.35;6.03;;;10.00;99.90;;;;;;6272063;22;20437;-72
2023/10/25 07:10:10;;;;;;;11.57;7.10;;;10.00;99.90;;;;;;6272281;22;19996;-73
2023/10/25 07:12:36;;;;;;;11.90;6.75;;;10.10;99.90;;;;;;6271319;22;20031;-73
2023/10/25 07:15:02;;;;;;;9.20;6.90;;;10.10;99.90;;;;;;6271114;22;20061;-73
2023/10/25 07:17:27;;;;;;;11.75;7.00;;;10.10;99.90;;;;;;6269986;22;19999;-72
2023/10/25 07:19:53;;;;;;;13.15;7.57;;;10.10;99.90;;;;;;6271841;22;20004;-73
2023/10/25 07:22:19;;;;;;;10.02;7.20;;;10.10;99.90;;;;;;6271871;22;20004;-73
2023/10/25 07:24:45;;;;;;;10.77;7.63;;;10.20;99.90;;;;;;6272150;22;20010;-72
2023/10/25 07:27:11;;;;;;;13.20;6.97;;;10.30;99.90;;;;;;6270156;22;20154;-73
2023/10/25 07:29:36;;;;;;;9.48;7.28;;;10.30;99.90;;;;;;6271029;22;20004;-73
2023/10/25 07:32:03;;;;;;;8.57;6.32;;;10.30;99.90;;;;;;6271905;22;20015;-73
2023/10/25 07:34:29;;;;;;;11.25;6.32;;;10.40;99.90;;;;;;6271069;22;20012;-73
2023/10/25 07:36:54;;;;;;;13.05;6.05;;;10.50;99.90;;;;;;6271232;22;20487;-73
2023/10/25 07:39:20;;;;;;;9.98;6.38;;;10.60;99.90;;;;;;6269956;22;20008;-73
2023/10/25 07:41:46;;;;;;;11.23;6.68;;;10.60;99.90;;;;;;6272079;22;20417;-73
2023/10/25 07:44:11;;;;;;;11.65;7.07;;;10.70;99.90;;;;;;6271302;22;20015;-73
2023/10/25 07:46:37;;;;;;;10.80;7.22;;;10.70;99.90;;;;;;6271524;22;20004;-73
2023/10/25 07:49:03;;;;;;;9.90;6.85;;;10.80;99.90;;;;;;6270165;22;20008;-73
2023/10/25 07:51:29;;;;;;;8.60;6.07;;;10.80;99.90;;;;;;6271182;22;20035;-73
2023/10/25 07:53:54;;;;;;;8.98;6.68;;;10.80;99.90;;;;;;6271183;22;20065;-73
2023/10/25 07:56:20;;;;;;;10.07;5.75;;;10.80;99.90;;;;;;6270654;22;19999;-73
2023/10/25 07:58:46;;;;;;;10.27;7.07;;;10.90;99.90;;;;;;6270871;22;20137;-73
2023/10/25 08:01:14;;;;;;;8.82;6.25;;;10.90;99.90;;;;;;6271637;22;20003;-73
2023/10/25 08:03:40;;;;;;;7.88;6.80;;;10.90;99.90;;;;;;6271395;22;20004;-74
2023/10/25 08:06:05;;;;;;;11.68;7.30;;;10.90;99.90;;;;;;6270967;22;20498;-73
2023/10/25 08:08:32;;;;;;;12.38;7.45;;;10.90;99.90;;;;;;6270950;22;20000;-73
2023/10/25 08:11:01;;;;;;;13.48;8.93;;;10.90;99.90;;;;;;6269474;22;20069;-73
2023/10/25 08:13:28;;;;;;;12.63;7.53;;;10.90;99.90;;;;;;6271081;22;20002;-73
2023/10/25 08:15:58;;;;;;;13.65;8.43;;;10.90;99.90;;;;;;6271287;22;20133;-73
2023/10/25 08:18:23;;;;;;;9.48;7.90;;;10.90;99.90;;;;;;6270733;22;20000;-73
2023/10/25 08:20:49;;;;;;;16.88;9.63;;;10.90;99.90;;;;;;6270445;22;20010;-73
2023/10/25 08:23:14;;;;;;;13.88;7.70;;;10.90;99.90;;;;;;6243588;22;20000;-73
2023/10/25 08:25:40;;;;;;;14.73;8.20;;;11.00;99.90;;;;;;6269853;22;20010;-73
2023/10/25 08:28:05;;;;;;;11.98;8.68;;;11.00;99.90;;;;;;6271284;22;20356;-73
2023/10/25 08:30:31;;;;;;;12.48;9.43;;;11.00;99.90;;;;;;6242335;22;20022;-73
2023/10/25 08:32:56;;;;;;;12.65;8.55;;;11.00;99.90;;;;;;6268387;22;20000;-73
2023/10/25 08:35:22;;;;;;;12.30;8.43;;;11.10;99.90;;;;;;6269470;22;20008;-73
2023/10/25 08:37:48;;;;;;;11.80;7.95;;;11.10;99.90;;;;;;6270767;22;20095;-72
2023/10/25 08:40:14;;;;;;;13.10;8.57;;;11.10;99.90;;;;;;6270790;22;20113;-72
2023/10/25 08:42:40;;;;;;;15.88;8.82;;;11.10;99.90;;;;;;6269916;22;20544;-73
2023/10/25 08:45:06;;;;;;;12.77;8.68;;;11.20;99.90;;;;;;6270419;22;20023;-73
2023/10/25 08:47:32;;;;;;;14.02;8.25;;;11.20;99.90;;;;;;6271059;22;20053;-73
2023/10/25 08:49:58;;;;;;;11.20;8.65;;;11.30;99.90;;;;;;6270993;22;19996;-73
2023/10/25 08:52:26;;;;;;;11.07;7.40;;;11.40;99.90;;;;;;6270581;22;20006;-73
2023/10/25 08:54:52;;;;;;;12.63;8.68;;;11.40;99.90;;;;;;6269085;22;20000;-73
2023/10/25 08:57:18;;;;;;;9.70;8.05;;;11.40;99.90;;;;;;6270973;22;20027;-73
2023/10/25 08:59:46;;;;;;;13.88;7.30;;;11.50;99.90;;;;;;6271163;22;20091;-73
2023/10/25 09:02:12;;;;;;;11.18;7.25;;;11.50;99.90;;;;;;6271365;22;20421;-73
2023/10/25 09:04:56;;;;;;;11.27;7.28;;;11.50;99.90;;;;;;6269375;22;20000;-73
2023/10/25 09:07:37;;;;;;;14.10;7.80;;;11.50;99.90;;;;;;6271119;22;20010;-73
2023/10/25 09:10:15;;;;;;;10.52;7.47;;;11.60;99.90;;;;;;6270680;22;20010;-73
2023/10/25 09:12:41;;;;;;;10.27;7.72;;;11.50;99.90;;;;;;6271475;22;20010;-73
2023/10/25 09:15:07;;;;;;;11.05;8.13;;;11.50;99.90;;;;;;6269782;22;20044;-73
2023/10/25 09:17:34;;;;;;;11.23;7.47;;;11.50;99.90;;;;;;6270810;22;20002;-73
2023/10/25 09:19:59;;;;;;;8.35;7.22;;;11.50;99.90;;;;;;6270487;22;20011;-73
2023/10/25 09:22:27;;;;;;;9.07;6.65;;;11.50;99.90;;;;;;6270321;22;19996;-73
2023/10/25 09:25:00;;;;;;;12.27;7.10;;;11.50;99.90;;;;;;6270225;22;20003;-73
2023/10/25 09:27:27;;;;;;;9.38;7.28;;;11.60;99.90;;;;;;6268743;22;20433;-73
2023/10/25 09:29:54;;;;;;;12.88;7.07;;;11.60;99.90;;;;;;6270751;22;20329;-73
2023/10/25 09:32:21;;;;;;;8.50;7.15;;;11.60;99.90;;;;;;6270488;22;19996;-73
2023/10/25 09:34:48;;;;;;;9.38;7.22;;;11.60;99.90;;;;;;6270625;22;20031;-73
2023/10/25 09:37:14;;;;;;;6.53;5.93;;;11.60;99.90;;;;;;6269689;22;19995;-73
2023/10/25 09:39:40;;;;;;;9.40;7.35;;;11.60;99.90;;;;;;6269724;22;20452;-73
2023/10/25 09:42:12;;;;;;;9.02;7.25;;;11.70;99.90;;;;;;6270658;22;20007;-73
2023/10/25 09:44:47;;;;;;;11.50;6.57;;;11.70;99.90;;;;;;6270305;22;20007;-73
2023/10/25 09:47:16;;;;;;;13.50;7.18;;;11.70;99.90;;;;;;6269630;22;20000;-73
2023/10/25 09:49:43;;;;;;;9.02;6.75;;;11.60;99.90;;;;;;6270765;22;20082;-73
2023/10/25 09:52:19;;;;;;;12.30;7.85;;;11.70;99.90;;;;;;6271131;22;20014;-73
2023/10/25 09:54:55;;;;;;;10.88;6.68;;;11.70;99.90;;;;;;6270681;22;20003;-73
2023/10/25 09:57:21;;;;;;;8.38;6.97;;;11.70;99.90;;;;;;6269259;22;20004;-74
2023/10/25 09:59:47;;;;;;;14.00;6.53;;;11.70;99.90;;;;;;6270584;22;19999;-73
2023/10/25 10:02:33;;;;;;;8.07;6.60;;;11.70;99.90;;;;;;6270943;22;20057;-73
2023/10/25 10:05:29;;;;;;;9.52;6.93;;;11.80;99.90;;;;;;6243426;22;20031;-73
2023/10/25 10:08:20;;;;;;;9.40;5.65;;;11.80;99.90;;;;;;6271665;22;20306;-73
2023/10/25 10:10:48;;;;;;;12.27;7.47;;;11.80;99.90;;;;;;6230420;22;20004;-74
2023/10/25 10:13:18;;;;;;;9.57;6.78;;;11.70;99.90;;;;;;6272234;22;20027;-74
2023/10/25 10:16:04;;;;;;;9.63;7.03;;;11.80;99.90;;;;;;6272299;22;20053;-73
2023/10/25 10:18:42;;;;;;;8.18;6.07;;;11.80;99.90;;;;;;6271946;22;20008;-74
2023/10/25 10:21:10;;;;;;;11.82;6.85;;;11.80;99.90;;;;;;6271218;22;20020;-73
2023/10/25 10:23:40;;;;;;;8.77;6.68;;;11.80;99.90;;;;;;6270987;22;20004;-74
2023/10/25 10:26:08;;;;;;;9.80;5.78;;;11.80;99.90;;;;;;6271882;22;20302;-74
2023/10/25 10:28:51;;;;;;;10.60;7.60;;;11.80;99.90;;;;;;6272105;22;20007;-73
2023/10/25 10:31:17;;;;;;;12.20;7.38;;;11.90;99.90;;;;;;6271037;22;20026;-74
2023/10/25 10:33:44;;;;;;;9.52;6.22;;;11.80;99.90;;;;;;6272781;22;20054;-73
2023/10/25 10:36:10;;;;;;;13.82;7.78;;;11.80;99.90;;;;;;6271849;22;20082;-73
2023/10/25 10:39:11;;;;;;;8.13;6.13;;;11.90;99.90;;;;;;6244420;22;20016;-73
2023/10/25 10:41:36;;;;;;;10.82;6.30;;;11.90;99.90;;;;;;6270388;22;20045;-73
2023/10/25 10:44:02;;;;;;;14.38;7.13;;;11.90;99.90;;;;;;6272294;22;20004;-73
2023/10/25 10:46:30;;;;;;;9.13;5.68;;;11.90;99.90;;;;;;6271755;22;20166;-73
2023/10/25 10:49:01;;;;;;;14.25;7.60;;;11.90;99.90;;;;;;6272156;22;20084;-73
2023/10/25 10:51:29;;;;;;;13.95;8.18;;;11.80;99.90;;;;;;6269909;22;20406;-74
2023/10/25 10:53:55;;;;;;;11.70;7.05;;;11.90;99.90;;;;;;6272021;22;20007;-73
2023/10/25 10:56:21;;;;;;;10.85;6.32;;;11.90;99.90;;;;;;6272128;22;19999;-73
2023/10/25 10:58:46;;;;;;;9.93;7.05;;;11.90;99.90;;;;;;6272299;22;19999;-74
2023/10/25 11:01:13;;;;;;;13.57;7.50;;;11.90;99.90;;;;;;6272297;22;20083;-74
2023/10/25 11:03:40;;;;;;;9.07;7.18;;;11.90;99.90;;;;;;6269825;22;20003;-74
2023/10/25 11:06:06;;;;;;;11.00;7.32;;;11.90;99.90;;;;;;6271519;22;20011;-73
2023/10/25 11:08:35;;;;;;;14.65;9.35;;;12.00;99.90;;;;;;6271463;22;20011;-74
2023/10/25 11:11:01;;;;;;;10.88;7.28;;;12.00;99.90;;;;;;6271817;22;20022;-74
2023/10/25 11:13:28;;;;;;;19.92;8.52;;;12.00;99.90;;;;;;6270139;22;20421;-74
2023/10/25 11:16:08;;;;;;;9.38;6.88;;;12.00;99.90;;;;;;6272178;22;20010;-73
2023/10/25 11:18:34;;;;;;;11.43;7.13;;;12.00;99.90;;;;;;6271813;22;19999;-74
2023/10/25 11:21:00;;;;;;;13.02;7.90;;;12.00;99.90;;;;;;6271450;22;20018;-74
2023/10/25 11:23:26;;;;;;;11.55;7.80;;;12.10;99.90;;;;;;6271192;22;20023;-73
2023/10/25 11:25:53;;;;;;;11.05;7.53;;;12.10;99.90;;;;;;6270609;22;20007;-74
2023/10/25 11:28:19;;;;;;;14.70;8.18;;;12.10;99.90;;;;;;6271549;22;20437;-74
2023/10/25 11:30:45;;;;;;;8.30;6.50;;;12.20;99.90;;;;;;6271778;22;20453;-73
2023/10/25 11:33:11;;;;;;;10.80;6.78;;;12.20;99.90;;;;;;6271915;22;20079;-74
2023/10/25 11:35:41;;;;;;;15.45;7.03;;;12.20;99.90;;;;;;6269741;22;19999;-74
2023/10/25 11:38:07;;;;;;;10.63;7.18;;;12.20;99.90;;;;;;6271545;22;20103;-74
2023/10/25 11:40:45;;;;;;;10.05;6.30;;;12.20;99.90;;;;;;6271058;22;20084;-74
2023/10/25 11:43:12;;;;;;;12.82;6.20;;;12.20;99.90;;;;;;6272297;22;20141;-73
2023/10/25 11:45:38;;;;;;;13.48;6.57;;;12.20;99.90;;;;;;6270283;22;20004;-73
2023/10/25 11:48:05;;;;;;;11.77;6.50;;;12.10;99.90;;;;;;6271555;22;20038;-73
2023/10/25 11:50:31;;;;;;;11.90;6.95;;;12.10;99.90;;;;;;6271273;22;20065;-73
2023/10/25 11:53:00;;;;;;;10.15;5.93;;;12.10;99.90;;;;;;6271557;22;20004;-74
2023/10/25 11:55:27;;;;;;;11.10;6.68;;;12.10;99.90;;;;;;6270399;22;20012;-74
2023/10/25 11:57:53;;;;;;;10.55;6.20;;;12.10;99.90;;;;;;6269670;22;19996;-74
2023/10/25 12:00:19;;;;;;;12.50;5.95;;;12.10;99.90;;;;;;6270761;22;20004;-73
2023/10/25 12:02:45;;;;;;;13.05;6.68;;;12.10;99.90;;;;;;6244656;22;20000;-73
2023/10/25 12:05:11;;;;;;;11.10;6.43;;;12.10;99.90;;;;;;6271164;22;20006;-73
2023/10/25 12:07:37;;;;;;;6.72;5.15;;;12.10;99.90;;;;;;6270563;22;20053;-74
2023/10/25 12:10:06;;;;;;;7.45;6.10;;;12.10;99.90;;;;;;6270966;22;20004;-73
2023/10/25 12:12:32;;;;;;;8.80;5.90;;;12.10;99.90;;;;;;6271187;22;19999;-74
2023/10/25 12:14:57;;;;;;;8.18;6.47;;;12.10;99.90;;;;;;6270850;22;20011;-74
2023/10/25 12:17:24;;;;;;;8.32;6.30;;;12.10;99.90;;;;;;6270449;22;20004;-73
2023/10/25 12:19:51;;;;;;;9.70;6.35;;;12.10;99.90;;;;;;6269290;22;19996;-73
2023/10/25 12:22:18;;;;;;;10.93;5.82;;;12.20;99.90;;;;;;6270915;22;19996;-73
2023/10/25 12:24:46;;;;;;;9.27;4.75;;;12.20;99.90;;;;;;6269737;22;20004;-74
2023/10/25 12:27:12;;;;;;;11.43;5.70;;;12.20;99.90;;;;;;6271797;22;20106;-74
2023/10/25 12:29:38;;;;;;;10.95;5.88;;;12.20;99.90;;;;;;6269604;22;19999;-74
2023/10/25 12:32:04;;;;;;;11.82;5.28;;;12.20;99.90;;;;;;6269921;22;19999;-74
2023/10/25 12:34:30;;;;;;;9.48;6.45;;;12.20;99.90;;;;;;6271201;22;20011;-74
2023/10/25 12:36:55;;;;;;;9.65;4.93;;;12.20;99.90;;;;;;6271586;22;20440;-74
2023/10/25 12:39:21;;;;;;;6.97;4.95;;;12.20;99.90;;;;;;6270483;22;20016;-74
2023/10/25 12:41:47;;;;;;;10.48;5.68;;;12.20;99.90;;;;;;6270013;22;20004;-74
2023/10/25 12:44:13;;;;;;;10.75;6.22;;;12.10;99.90;;;;;;6271634;22;20014;-73
2023/10/25 12:46:42;;;;;;;9.15;5.50;;;12.20;99.90;;;;;;6243355;22;19999;-74